Time;durP1;ratioP1;P1;durP2;ratioP2;P2;SDS_P1;SDS_P2;PMS_P1;PMS_P2;Temp;Humidity;BMP_temperature;BMP_pressure;BME280_temperature;BME280_humidity;BME280_pressure;Samples;Min_cycle;Max_cycle;Signal;HPM_P1;HPM_P2
2022/11/11 00:00:22;;;;;;;5.53;2.58;;;6.80;99.90;;;;;;4985657;28;20031;-62
2022/11/11 00:13:50;;;;;;;3.00;1.92;;;6.50;99.90;;;;;;4974413;28;20032;-62
2022/11/11 00:16:18;;;;;;;4.32;2.17;;;6.40;99.90;;;;;;4965057;28;20058;-62
2022/11/11 00:27:14;;;;;;;4.85;2.20;;;6.30;99.90;;;;;;4974408;28;20508;-62
2022/11/11 00:29:44;;;;;;;5.43;2.58;;;6.40;99.90;;;;;;4971871;28;20514;-62
2022/11/11 00:32:22;;;;;;;3.42;1.77;;;6.40;99.90;;;;;;4956108;28;20076;-62
2022/11/11 00:37:38;;;;;;;6.97;2.25;;;6.50;99.90;;;;;;4980141;28;20184;-62
2022/11/11 00:40:04;;;;;;;4.80;2.33;;;6.60;99.90;;;;;;4986533;28;20033;-63
2022/11/11 00:42:30;;;;;;;4.15;2.13;;;6.60;99.90;;;;;;4972948;28;20149;-62
2022/11/11 00:44:56;;;;;;;17.02;3.58;;;6.50;99.90;;;;;;4986484;28;20502;-62
2022/11/11 00:52:59;;;;;;;4.35;2.42;;;6.50;99.90;;;;;;4974654;28;20108;-62
2022/11/11 00:55:25;;;;;;;5.68;2.70;;;6.60;99.90;;;;;;4985771;28;20503;-62
2022/11/11 00:57:50;;;;;;;7.75;3.03;;;6.60;99.90;;;;;;4974301;28;20027;-63
2022/11/11 01:00:16;;;;;;;8.93;2.50;;;6.50;99.90;;;;;;5001826;28;20177;-62
2022/11/11 01:02:42;;;;;;;3.50;2.10;;;6.50;99.90;;;;;;4973232;28;20638;-63
2022/11/11 01:05:07;;;;;;;11.65;3.13;;;6.50;99.90;;;;;;4986335;28;20038;-62
2022/11/11 01:07:33;;;;;;;4.57;2.95;;;6.50;99.90;;;;;;4972345;28;20078;-62
2022/11/11 01:09:59;;;;;;;4.75;2.58;;;6.50;99.90;;;;;;4985777;28;20031;-63
2022/11/11 01:12:24;;;;;;;5.72;3.45;;;6.50;99.90;;;;;;4971476;28;20030;-62
2022/11/11 01:14:50;;;;;;;4.07;2.25;;;6.50;99.90;;;;;;4977184;28;20031;-63
2022/11/11 01:17:16;;;;;;;4.78;2.53;;;6.40;99.90;;;;;;4972082;28;20030;-63
2022/11/11 01:19:41;;;;;;;4.95;2.90;;;6.40;99.90;;;;;;4984443;28;20113;-62
2022/11/11 01:22:07;;;;;;;4.43;2.50;;;6.30;99.90;;;;;;4975500;28;20038;-62
2022/11/11 01:24:33;;;;;;;6.93;3.08;;;6.30;99.90;;;;;;4983089;28;20038;-63
2022/11/11 01:26:58;;;;;;;5.22;2.47;;;6.20;99.90;;;;;;4975239;28;20041;-62
2022/11/11 01:29:24;;;;;;;3.85;2.03;;;6.10;99.90;;;;;;4981721;28;20359;-62
2022/11/11 01:31:49;;;;;;;5.07;2.55;;;6.00;99.90;;;;;;4978446;28;20386;-63
2022/11/11 01:34:15;;;;;;;5.20;2.72;;;6.00;99.90;;;;;;4986536;28;20085;-62
2022/11/11 01:36:41;;;;;;;3.90;2.50;;;6.00;99.90;;;;;;4979129;28;20026;-62
2022/11/11 01:39:07;;;;;;;6.43;2.85;;;5.90;99.90;;;;;;4969539;28;20030;-62
2022/11/11 01:41:37;;;;;;;4.00;2.22;;;5.90;99.90;;;;;;4977339;28;20042;-63
2022/11/11 01:44:12;;;;;;;3.53;1.63;;;5.90;99.90;;;;;;4986502;28;20022;-62
2022/11/11 01:46:59;;;;;;;3.03;1.95;;;5.90;99.90;;;;;;4978966;28;20525;-63
2022/11/11 01:49:37;;;;;;;10.80;2.85;;;5.90;99.90;;;;;;4985480;28;20041;-62
2022/11/11 01:52:19;;;;;;;6.28;2.65;;;5.80;99.90;;;;;;4979314;28;20041;-63
2022/11/11 01:54:52;;;;;;;3.55;2.05;;;5.80;99.90;;;;;;4980550;28;20030;-63
2022/11/11 01:57:56;;;;;;;4.38;2.42;;;5.80;99.90;;;;;;4976386;28;20034;-63
2022/11/11 02:00:22;;;;;;;5.68;2.90;;;5.90;99.90;;;;;;4988038;28;20065;-62
2022/11/11 02:02:54;;;;;;;5.40;3.03;;;5.90;99.90;;;;;;4977154;28;20023;-62
2022/11/11 02:05:42;;;;;;;3.97;1.95;;;5.90;99.90;;;;;;4971108;28;20027;-62
2022/11/11 02:08:31;;;;;;;5.53;3.10;;;5.90;99.90;;;;;;4965782;28;20039;-62
2022/11/11 02:11:09;;;;;;;5.85;3.67;;;5.90;99.90;;;;;;4961072;28;20049;-62
2022/11/11 02:16:26;;;;;;;17.85;4.15;;;5.90;99.90;;;;;;4964162;28;20476;-62
2022/11/11 02:18:52;;;;;;;6.30;3.95;;;6.10;99.90;;;;;;4986226;28;20041;-62
2022/11/11 02:21:32;;;;;;;9.55;3.88;;;6.10;99.90;;;;;;4977069;28;20039;-62
2022/11/11 02:24:11;;;;;;;7.90;3.17;;;6.10;99.90;;;;;;4977434;28;20233;-62
2022/11/11 02:26:38;;;;;;;9.75;2.72;;;6.10;99.90;;;;;;4969712;28;20038;-63
2022/11/11 02:29:11;;;;;;;9.52;4.38;;;6.10;99.90;;;;;;4984820;28;20590;-62
2022/11/11 02:31:37;;;;;;;8.48;4.07;;;6.10;99.90;;;;;;5005731;23;20050;-65
2022/11/11 02:34:03;;;;;;;8.85;3.97;;;6.10;99.90;;;;;;4992633;28;20028;-66
2022/11/11 02:36:29;;;;;;;5.78;2.65;;;6.10;99.90;;;;;;5001546;28;20399;-66
2022/11/11 02:38:55;;;;;;;5.85;3.13;;;6.00;99.90;;;;;;5008245;28;20555;-66
2022/11/11 02:44:05;;;;;;;6.57;3.50;;;5.90;99.90;;;;;;4996755;28;20038;-66
2022/11/11 02:46:31;;;;;;;4.95;2.85;;;5.90;99.90;;;;;;5001405;28;20521;-65
2022/11/11 02:48:56;;;;;;;7.97;2.88;;;5.80;99.90;;;;;;5008284;28;20065;-66
2022/11/11 02:51:22;;;;;;;5.35;2.80;;;5.90;99.90;;;;;;5008715;28;20042;-65
2022/11/11 02:53:48;;;;;;;4.32;2.83;;;5.90;99.90;;;;;;5006859;28;20057;-66
2022/11/11 02:57:06;;;;;;;13.43;3.95;;;5.90;99.90;;;;;;5009605;28;20063;-65
2022/11/11 02:58:59;;;;;;;6.60;2.80;;;5.90;99.90;;;;;;5008432;28;20421;-65
2022/11/11 03:01:25;;;;;;;7.68;3.53;;;5.80;99.90;;;;;;5008066;28;20092;-65
2022/11/11 03:03:50;;;;;;;6.22;3.67;;;5.70;99.90;;;;;;5006879;28;20490;-65
2022/11/11 03:06:16;;;;;;;5.03;2.65;;;5.70;99.90;;;;;;5008906;28;20065;-65
2022/11/11 03:08:42;;;;;;;4.80;3.13;;;5.70;99.90;;;;;;5004587;28;20030;-65
2022/11/11 03:11:08;;;;;;;6.60;3.15;;;5.70;99.90;;;;;;5007448;28;20039;-66
2022/11/11 03:13:33;;;;;;;5.53;2.72;;;5.70;99.90;;;;;;4996717;28;20482;-66
2022/11/11 03:15:59;;;;;;;8.68;2.17;;;5.70;99.90;;;;;;5005188;28;20510;-66
2022/11/11 03:18:24;;;;;;;3.58;2.47;;;5.70;99.90;;;;;;5004436;28;20025;-66
2022/11/11 03:21:05;;;;;;;7.95;4.22;;;5.60;99.90;;;;;;5009058;28;20068;-65
2022/11/11 03:23:31;;;;;;;6.60;3.67;;;5.60;99.90;;;;;;5004451;28;20080;-66
2022/11/11 03:25:56;;;;;;;6.25;3.08;;;5.70;99.90;;;;;;5009731;28;20030;-66
2022/11/11 03:28:25;;;;;;;4.65;2.28;;;5.70;99.90;;;;;;5004278;28;20034;-66
2022/11/11 03:30:52;;;;;;;5.63;3.10;;;5.70;99.90;;;;;;5007384;28;20040;-67
2022/11/11 03:33:18;;;;;;;9.10;2.65;;;5.70;99.90;;;;;;5003160;28;20026;-67
2022/11/11 03:35:47;;;;;;;10.02;3.30;;;5.70;99.90;;;;;;5008347;28;20043;-66
2022/11/11 03:38:23;;;;;;;10.85;3.75;;;5.70;99.90;;;;;;5003006;28;20461;-66
2022/11/11 03:40:55;;;;;;;7.22;3.03;;;5.70;99.90;;;;;;5008530;28;20421;-66
2022/11/11 03:43:27;;;;;;;7.53;3.65;;;5.70;99.90;;;;;;5004215;28;20080;-66
2022/11/11 03:45:55;;;;;;;15.80;3.03;;;5.70;99.90;;;;;;5008182;28;20099;-66
2022/11/11 03:48:22;;;;;;;8.13;2.95;;;5.60;99.90;;;;;;5002835;28;20033;-66
2022/11/11 03:50:48;;;;;;;12.38;3.60;;;5.60;99.90;;;;;;4991179;28;20029;-66
2022/11/11 03:53:16;;;;;;;5.15;2.95;;;5.70;99.90;;;;;;5003432;28;20091;-66
2022/11/11 03:55:42;;;;;;;3.90;2.35;;;5.60;99.90;;;;;;5007986;28;20026;-66
2022/11/11 03:58:08;;;;;;;7.57;3.00;;;5.50;99.90;;;;;;5003698;28;20025;-66
2022/11/11 04:00:34;;;;;;;3.67;2.22;;;5.40;99.90;;;;;;5008187;28;20103;-66
2022/11/11 04:11:47;;;;;;;4.43;2.58;;;5.20;99.90;;;;;;4995587;28;20394;-66
2022/11/11 04:16:58;;;;;;;4.60;3.55;;;5.00;99.90;;;;;;4995568;28;20023;-66
2022/11/11 04:22:09;;;;;;;5.57;2.60;;;5.10;99.90;;;;;;4999095;28;20018;-67
2022/11/11 04:27:20;;;;;;;9.27;2.65;;;5.20;99.90;;;;;;5000038;28;20034;-66
2022/11/11 04:29:46;;;;;;;5.20;2.20;;;5.20;99.90;;;;;;4992350;28;20038;-66
2022/11/11 04:32:34;;;;;;;5.40;2.38;;;5.30;99.90;;;;;;4998114;28;20042;-66
2022/11/11 04:35:04;;;;;;;4.57;2.50;;;5.30;99.90;;;;;;5009276;28;20450;-65
2022/11/11 04:37:34;;;;;;;3.53;2.20;;;5.40;99.90;;;;;;5000546;28;20406;-66
2022/11/11 04:42:44;;;;;;;6.45;4.20;;;5.30;99.90;;;;;;4991907;28;20037;-66
2022/11/11 04:45:27;;;;;;;5.68;3.78;;;5.20;99.90;;;;;;4989463;28;20030;-66
2022/11/11 04:48:03;;;;;;;5.88;2.88;;;5.20;99.90;;;;;;5002477;28;20057;-65
2022/11/11 04:50:36;;;;;;;11.38;3.65;;;5.20;99.90;;;;;;5007737;28;20061;-66
2022/11/11 04:53:06;;;;;;;6.85;3.22;;;5.20;99.90;;;;;;5002391;28;20014;-66
2022/11/11 04:58:19;;;;;;;4.43;2.22;;;5.30;99.90;;;;;;5002502;28;20064;-65
2022/11/11 05:00:45;;;;;;;5.82;3.38;;;5.20;99.90;;;;;;5007964;28;20033;-66
2022/11/11 05:03:15;;;;;;;8.90;3.50;;;5.20;99.90;;;;;;5002065;28;20092;-66
2022/11/11 05:08:56;;;;;;;4.80;2.50;;;5.20;99.90;;;;;;4997217;28;20096;-66
2022/11/11 05:11:33;;;;;;;4.40;2.63;;;5.20;99.90;;;;;;5004412;28;20041;-66
2022/11/11 05:22:33;;;;;;;3.10;2.08;;;5.20;99.90;;;;;;5000163;28;20069;-66
2022/11/11 05:27:43;;;;;;;4.28;2.47;;;5.20;99.90;;;;;;4992147;28;20041;-65
2022/11/11 05:30:12;;;;;;;4.03;2.65;;;5.40;99.90;;;;;;4989278;28;20042;-65
2022/11/11 05:32:38;;;;;;;6.50;4.35;;;5.30;99.90;;;;;;5002050;28;20096;-66
2022/11/11 05:35:05;;;;;;;14.45;7.05;;;5.30;99.90;;;;;;5007496;28;20022;-66
2022/11/11 05:37:31;;;;;;;8.30;4.13;;;5.40;99.90;;;;;;5001485;28;20033;-66
2022/11/11 05:39:57;;;;;;;37.67;14.57;;;5.30;99.90;;;;;;5007654;28;20034;-66
2022/11/11 05:42:23;;;;;;;7.50;4.97;;;5.30;99.90;;;;;;5000367;28;20042;-66
2022/11/11 05:44:49;;;;;;;7.20;3.65;;;5.30;99.90;;;;;;5009652;28;20036;-66
2022/11/11 05:47:15;;;;;;;6.05;2.90;;;5.40;99.90;;;;;;4996834;28;20466;-66
2022/11/11 05:49:41;;;;;;;5.68;3.13;;;5.40;99.90;;;;;;5008487;28;20038;-66
2022/11/11 05:52:09;;;;;;;17.95;6.47;;;5.40;99.90;;;;;;4997613;28;20038;-66
2022/11/11 05:54:35;;;;;;;10.02;4.10;;;5.60;99.90;;;;;;4969252;28;20406;-66
2022/11/11 05:57:02;;;;;;;7.68;2.80;;;5.60;99.90;;;;;;4994860;28;20101;-66
2022/11/11 05:59:28;;;;;;;5.07;3.25;;;5.60;99.90;;;;;;5009442;28;20040;-66
2022/11/11 06:01:54;;;;;;;8.05;2.90;;;5.60;99.90;;;;;;5005235;28;20425;-66
2022/11/11 06:04:19;;;;;;;6.40;3.05;;;5.50;99.90;;;;;;4996916;28;20587;-66
2022/11/11 06:06:45;;;;;;;7.25;3.78;;;5.50;99.90;;;;;;4998708;28;20042;-65
2022/11/11 06:09:11;;;;;;;21.17;7.35;;;5.50;99.90;;;;;;5006670;28;20038;-65
2022/11/11 06:11:37;;;;;;;22.60;11.20;;;5.50;99.90;;;;;;5006767;28;20536;-65
2022/11/11 06:14:03;;;;;;;6.40;3.70;;;5.60;99.90;;;;;;4997735;28;20033;-65
2022/11/11 06:16:28;;;;;;;19.95;3.50;;;5.50;99.90;;;;;;4992078;28;20030;-65
2022/11/11 06:18:54;;;;;;;5.57;3.85;;;5.50;99.90;;;;;;5001417;28;20022;-65
2022/11/11 06:21:20;;;;;;;5.82;3.17;;;5.50;99.90;;;;;;5011375;28;20045;-65
2022/11/11 06:23:46;;;;;;;4.95;2.88;;;5.50;99.90;;;;;;5003041;28;20026;-65
2022/11/11 06:26:12;;;;;;;4.43;2.25;;;5.50;99.90;;;;;;5009240;28;20100;-66
2022/11/11 06:28:47;;;;;;;5.85;3.10;;;5.60;99.90;;;;;;5004383;28;20045;-65
2022/11/11 06:31:34;;;;;;;3.70;2.45;;;5.50;99.90;;;;;;5010305;28;20180;-66
2022/11/11 06:34:00;;;;;;;9.35;4.45;;;5.50;99.90;;;;;;5001027;28;20398;-66
2022/11/11 06:36:26;;;;;;;4.43;2.22;;;5.50;99.90;;;;;;5012017;28;20173;-66
2022/11/11 06:38:51;;;;;;;13.10;3.30;;;5.60;99.90;;;;;;5002494;28;20496;-66
2022/11/11 06:41:17;;;;;;;5.13;2.80;;;5.60;99.90;;;;;;5010662;28;20030;-66
2022/11/11 06:43:43;;;;;;;5.75;2.60;;;5.60;99.90;;;;;;5002125;28;20049;-67
2022/11/11 06:46:23;;;;;;;7.05;3.50;;;5.70;99.90;;;;;;5008162;28;20034;-66
2022/11/11 06:48:50;;;;;;;7.85;3.40;;;5.60;99.90;;;;;;5001376;28;20458;-66
2022/11/11 06:51:16;;;;;;;17.88;5.97;;;5.80;99.90;;;;;;4992617;28;20221;-66
2022/11/11 06:53:42;;;;;;;12.13;4.68;;;5.70;99.90;;;;;;5001701;28;20050;-66
2022/11/11 06:56:09;;;;;;;5.72;3.42;;;5.80;99.90;;;;;;5000842;28;20026;-66
2022/11/11 06:58:35;;;;;;;6.43;3.72;;;5.80;99.90;;;;;;4999108;28;20041;-66
2022/11/11 07:01:05;;;;;;;8.38;4.72;;;6.00;99.90;;;;;;5001344;28;20038;-66
2022/11/11 07:03:32;;;;;;;7.97;4.75;;;6.00;99.90;;;;;;4990110;28;20030;-66
2022/11/11 07:06:01;;;;;;;8.68;2.72;;;6.10;99.90;;;;;;4995529;28;20026;-66
2022/11/11 07:08:27;;;;;;;10.15;3.08;;;6.10;99.90;;;;;;5007430;28;20034;-66
2022/11/11 07:10:54;;;;;;;6.15;3.30;;;6.20;99.90;;;;;;4984108;28;20038;-66
2022/11/11 07:13:19;;;;;;;10.88;5.03;;;6.30;99.90;;;;;;5008615;28;20176;-66
2022/11/11 07:15:46;;;;;;;8.82;3.42;;;6.30;99.90;;;;;;5000782;28;20141;-66
2022/11/11 07:18:12;;;;;;;10.27;4.63;;;6.40;99.90;;;;;;4994529;28;20034;-66
2022/11/11 07:20:38;;;;;;;7.78;4.00;;;6.40;99.90;;;;;;4988268;28;20430;-66
2022/11/11 07:23:05;;;;;;;9.27;4.60;;;6.40;99.90;;;;;;4998768;28;20073;-67
2022/11/11 07:25:31;;;;;;;24.83;6.30;;;6.40;99.90;;;;;;4995257;28;20435;-66
2022/11/11 07:27:57;;;;;;;9.13;5.22;;;6.40;99.90;;;;;;5003551;28;20052;-66
2022/11/11 07:30:23;;;;;;;7.32;4.15;;;6.60;99.90;;;;;;4993685;28;20033;-67
2022/11/11 07:32:51;;;;;;;9.13;4.15;;;6.60;99.90;;;;;;5005637;28;20068;-67
2022/11/11 07:35:18;;;;;;;14.82;4.65;;;6.60;99.90;;;;;;5005889;28;20482;-67
2022/11/11 07:37:44;;;;;;;13.05;4.82;;;6.60;99.90;;;;;;5005902;28;20386;-68
2022/11/11 07:40:13;;;;;;;11.32;4.75;;;6.60;99.90;;;;;;5005844;28;20037;-67
2022/11/11 07:42:41;;;;;;;10.07;4.93;;;6.70;99.90;;;;;;5003732;28;20045;-68
2022/11/11 07:45:08;;;;;;;10.63;5.72;;;6.60;99.90;;;;;;5006608;28;20110;-69
2022/11/11 07:47:34;;;;;;;15.10;6.75;;;6.50;99.90;;;;;;4995393;28;20037;-68
2022/11/11 07:50:05;;;;;;;13.40;4.65;;;6.50;99.90;;;;;;5007928;28;20030;-69
2022/11/11 07:52:31;;;;;;;8.38;4.45;;;6.70;99.90;;;;;;5002482;28;20076;-69
2022/11/11 07:54:57;;;;;;;12.65;5.05;;;6.70;99.90;;;;;;5007646;28;20038;-67
2022/11/11 07:57:22;;;;;;;7.60;5.13;;;6.70;99.90;;;;;;5003598;28;20026;-69
2022/11/11 07:59:48;;;;;;;8.63;4.75;;;6.80;99.90;;;;;;5006046;28;20109;-67
2022/11/11 08:02:14;;;;;;;9.57;4.25;;;6.70;99.90;;;;;;5003313;28;20103;-66
2022/11/11 08:04:40;;;;;;;10.40;4.13;;;6.70;99.90;;;;;;5005469;28;20033;-67
2022/11/11 08:07:07;;;;;;;6.60;3.13;;;6.80;99.90;;;;;;5003410;28;20116;-68
2022/11/11 08:09:32;;;;;;;8.82;4.07;;;6.90;99.90;;;;;;5007908;28;20044;-68
2022/11/11 08:14:42;;;;;;;6.07;3.08;;;7.00;99.90;;;;;;5007288;28;20053;-68
2022/11/11 08:17:08;;;;;;;21.35;3.75;;;7.00;99.90;;;;;;5003573;28;20048;-68
2022/11/11 08:19:34;;;;;;;12.90;3.63;;;6.90;99.90;;;;;;5007038;28;20118;-66
2022/11/11 08:21:59;;;;;;;10.35;3.30;;;6.90;99.90;;;;;;5003434;28;20036;-67
2022/11/11 08:24:25;;;;;;;3.78;2.22;;;6.90;99.90;;;;;;5007411;28;20064;-68
2022/11/11 08:26:52;;;;;;;9.95;3.30;;;7.10;99.90;;;;;;5003187;28;20034;-66
2022/11/11 08:29:19;;;;;;;10.68;4.00;;;7.10;99.90;;;;;;5007632;28;20037;-66
2022/11/11 08:31:45;;;;;;;8.60;2.95;;;7.10;99.90;;;;;;5013181;23;20157;-70
2022/11/11 08:34:11;;;;;;;5.70;2.95;;;7.10;99.90;;;;;;5002277;28;20085;-70
2022/11/11 08:36:37;;;;;;;5.53;3.05;;;7.20;99.90;;;;;;4972572;28;20072;-71
2022/11/11 08:39:03;;;;;;;8.98;3.90;;;7.20;99.90;;;;;;4983491;28;20026;-70
2022/11/11 08:41:29;;;;;;;7.18;3.40;;;7.20;99.90;;;;;;4977281;28;20407;-71
2022/11/11 08:43:55;;;;;;;4.22;2.17;;;7.20;99.90;;;;;;4982208;28;20034;-71
2022/11/11 08:46:21;;;;;;;7.88;3.22;;;7.20;99.90;;;;;;4984762;28;20042;-72
2022/11/11 08:48:47;;;;;;;5.85;2.53;;;7.20;99.90;;;;;;4965267;28;20022;-72
2022/11/11 08:51:14;;;;;;;7.50;2.67;;;7.20;99.90;;;;;;4968486;28;20110;-70
2022/11/11 08:53:41;;;;;;;11.50;3.95;;;7.30;99.90;;;;;;4982947;28;20037;-70
2022/11/11 08:56:07;;;;;;;7.88;3.20;;;7.30;99.90;;;;;;4976233;28;20031;-71
2022/11/11 08:58:33;;;;;;;8.55;3.30;;;7.30;99.90;;;;;;4962813;28;20026;-70
2022/11/11 09:01:00;;;;;;;4.95;2.65;;;7.30;99.90;;;;;;4953950;28;20034;-71
2022/11/11 09:03:26;;;;;;;10.85;3.28;;;7.30;99.90;;;;;;4969860;28;20514;-71
2022/11/11 09:05:52;;;;;;;8.13;3.10;;;7.30;99.90;;;;;;4968115;28;20022;-71
2022/11/11 09:08:18;;;;;;;6.32;2.85;;;7.50;99.90;;;;;;4969389;28;20371;-71
2022/11/11 09:10:43;;;;;;;7.53;3.97;;;7.50;99.90;;;;;;4971496;28;20058;-71
2022/11/11 09:13:09;;;;;;;10.05;4.22;;;7.50;99.90;;;;;;4979355;28;20026;-70
2022/11/11 09:15:35;;;;;;;14.18;4.22;;;7.50;99.90;;;;;;4983228;28;20117;-69
2022/11/11 09:18:02;;;;;;;9.18;3.92;;;7.50;99.90;;;;;;4988830;28;20049;-71
2022/11/11 09:20:28;;;;;;;12.57;5.47;;;7.50;99.90;;;;;;4982853;28;20029;-71
2022/11/11 09:22:54;;;;;;;12.50;4.40;;;7.70;99.90;;;;;;4987272;28;20042;-73
2022/11/11 09:25:20;;;;;;;10.88;3.65;;;7.70;99.90;;;;;;4981315;28;20034;-73
2022/11/11 09:27:58;;;;;;;8.18;4.60;;;7.80;99.90;;;;;;4987406;28;20117;-73
2022/11/11 09:30:24;;;;;;;11.93;4.28;;;7.90;99.90;;;;;;4980430;28;20113;-72
2022/11/11 09:32:51;;;;;;;18.52;4.90;;;7.90;99.90;;;;;;4967678;28;20034;-73
2022/11/11 09:35:17;;;;;;;10.90;5.00;;;8.00;99.90;;;;;;4982694;28;20085;-73
2022/11/11 09:37:56;;;;;;;9.85;4.32;;;8.10;99.90;;;;;;4987062;28;20030;-73
2022/11/11 09:40:25;;;;;;;19.70;6.28;;;8.00;99.90;;;;;;4981636;28;20030;-72
2022/11/11 09:43:18;;;;;;;7.63;4.45;;;8.10;99.90;;;;;;4987885;28;20037;-72
2022/11/11 09:46:15;;;;;;;7.95;3.67;;;8.00;99.90;;;;;;4976173;28;20031;-71
2022/11/11 09:49:25;;;;;;;11.13;5.80;;;8.10;99.90;;;;;;4963270;28;20023;-73
2022/11/11 09:52:07;;;;;;;19.58;4.53;;;8.20;99.90;;;;;;4953857;28;20444;-73
2022/11/11 09:54:47;;;;;;;16.00;5.63;;;8.30;99.90;;;;;;4975148;28;20454;-73
2022/11/11 09:57:36;;;;;;;12.45;4.63;;;8.30;99.90;;;;;;4975173;28;20038;-73
2022/11/11 10:00:15;;;;;;;19.42;6.32;;;8.30;99.90;;;;;;4985280;28;20042;-72
2022/11/11 10:02:49;;;;;;;12.88;6.07;;;8.40;99.90;;;;;;4974067;28;20030;-72
2022/11/11 10:05:31;;;;;;;12.00;5.85;;;8.60;99.90;;;;;;4984758;28;20039;-73
2022/11/11 10:08:25;;;;;;;12.68;5.38;;;8.60;99.90;;;;;;4989232;28;20034;-72
2022/11/11 10:10:53;;;;;;;14.10;6.43;;;8.40;99.90;;;;;;4981868;28;20030;-73
2022/11/11 10:13:35;;;;;;;9.77;5.50;;;8.40;99.90;;;;;;4972679;28;20030;-73
2022/11/11 10:16:41;;;;;;;14.85;6.95;;;8.30;99.90;;;;;;4988558;28;20026;-71
2022/11/11 10:19:51;;;;;;;20.17;8.23;;;8.40;99.90;;;;;;4983641;28;20113;-72
2022/11/11 10:22:30;;;;;;;12.45;7.55;;;8.40;99.90;;;;;;4958592;28;20505;-71
2022/11/11 10:25:23;;;;;;;13.10;5.72;;;8.50;99.90;;;;;;4985284;28;20038;-70
2022/11/11 10:27:53;;;;;;;18.92;8.10;;;8.60;99.90;;;;;;4987803;28;20567;-70
2022/11/11 10:30:31;;;;;;;14.85;6.47;;;8.70;99.90;;;;;;4980296;28;20044;-70
2022/11/11 10:33:10;;;;;;;16.73;6.75;;;8.70;99.90;;;;;;4990197;28;20026;-74
2022/11/11 10:35:40;;;;;;;17.48;7.32;;;8.60;99.90;;;;;;4978451;28;20474;-70
2022/11/11 10:38:14;;;;;;;14.18;6.38;;;8.70;99.90;;;;;;4990034;28;20038;-72
2022/11/11 10:40:52;;;;;;;17.15;5.53;;;8.50;99.90;;;;;;4979607;28;20037;-72
2022/11/11 10:43:27;;;;;;;12.88;5.78;;;8.80;99.90;;;;;;4988396;28;20544;-71
2022/11/11 10:46:19;;;;;;;9.40;6.10;;;8.40;99.90;;;;;;4988217;28;20034;-76
2022/11/11 10:49:19;;;;;;;18.75;7.38;;;8.40;99.90;;;;;;4985974;28;20051;-72
2022/11/11 10:51:58;;;;;;;20.42;6.93;;;8.30;99.90;;;;;;4969327;28;20376;-73
2022/11/11 10:54:49;;;;;;;15.20;5.93;;;8.30;99.90;;;;;;4981555;28;20031;-74
2022/11/11 10:57:30;;;;;;;21.70;6.45;;;8.40;99.90;;;;;;4989610;28;20140;-71
2022/11/11 11:00:00;;;;;;;22.38;6.95;;;8.50;99.90;;;;;;4985313;28;20101;-72
2022/11/11 11:02:40;;;;;;;9.93;6.47;;;8.60;99.90;;;;;;4989102;28;20039;-73
2022/11/11 11:05:12;;;;;;;17.08;7.63;;;8.60;99.90;;;;;;4984854;28;20085;-71
2022/11/11 11:07:49;;;;;;;21.83;6.72;;;8.50;99.90;;;;;;4989463;28;20040;-74
2022/11/11 11:10:22;;;;;;;12.10;5.97;;;8.70;99.90;;;;;;4984126;28;20030;-73
2022/11/11 11:13:12;;;;;;;22.08;7.53;;;8.80;99.90;;;;;;4989342;28;20027;-72
2022/11/11 11:15:44;;;;;;;15.13;8.32;;;8.80;99.90;;;;;;4976664;28;20386;-74
2022/11/11 11:18:15;;;;;;;18.90;6.32;;;8.60;99.90;;;;;;4988712;28;20512;-72
2022/11/11 11:21:02;;;;;;;20.83;7.88;;;8.60;99.90;;;;;;4984666;28;20112;-71
2022/11/11 11:23:43;;;;;;;15.75;8.52;;;8.70;99.90;;;;;;4986493;28;20034;-70
2022/11/11 11:26:12;;;;;;;23.95;8.45;;;8.80;99.90;;;;;;4983376;28;20105;-70
2022/11/11 11:29:00;;;;;;;18.48;5.75;;;8.90;99.90;;;;;;4978023;28;20035;-72
2022/11/11 11:31:40;;;;;;;16.63;7.63;;;8.90;99.90;;;;;;4990205;28;20037;-73
2022/11/11 11:34:05;;;;;;;20.17;7.03;;;8.90;99.90;;;;;;4982138;28;20037;-75
2022/11/11 11:36:31;;;;;;;18.85;8.70;;;8.80;99.90;;;;;;4992723;28;20117;-71
2022/11/11 11:38:59;;;;;;;26.58;7.95;;;9.00;99.90;;;;;;4983428;28;20034;-72
2022/11/11 11:41:50;;;;;;;16.05;7.55;;;9.00;99.90;;;;;;4990685;28;20034;-72
2022/11/11 11:44:34;;;;;;;20.98;8.68;;;9.10;99.90;;;;;;4980400;28;20034;-71
2022/11/11 11:47:12;;;;;;;18.25;7.00;;;9.00;99.90;;;;;;4991201;28;20045;-63
2022/11/11 11:50:15;;;;;;;20.42;8.00;;;9.00;99.90;;;;;;4971345;28;20478;-64
2022/11/11 11:53:03;;;;;;;18.92;8.98;;;9.00;99.90;;;;;;4989848;28;20037;-70
2022/11/11 11:55:38;;;;;;;12.38;5.95;;;8.90;99.90;;;;;;4982729;28;20026;-72
2022/11/11 11:58:35;;;;;;;22.15;7.55;;;9.10;99.90;;;;;;4988455;28;20387;-73
2022/11/11 12:01:25;;;;;;;20.73;7.32;;;9.10;99.90;;;;;;4982748;28;20030;-71
2022/11/11 12:04:09;;;;;;;25.17;8.88;;;9.20;99.90;;;;;;4983708;28;20027;-74
2022/11/11 12:07:03;;;;;;;22.52;7.90;;;9.20;99.90;;;;;;4952645;29;20042;-71
2022/11/11 12:10:00;;;;;;;28.95;10.18;;;9.20;99.90;;;;;;4983116;28;20041;-71
2022/11/11 12:12:57;;;;;;;23.90;9.35;;;9.10;99.90;;;;;;4963784;28;20497;-71
2022/11/11 12:15:51;;;;;;;21.38;8.18;;;9.10;99.90;;;;;;4954463;28;20160;-71
2022/11/11 12:18:52;;;;;;;20.98;7.75;;;9.30;99.90;;;;;;4980230;28;20063;-72
2022/11/11 12:21:23;;;;;;;15.70;6.45;;;9.40;99.90;;;;;;4954817;28;20086;-72
2022/11/11 12:23:57;;;;;;;;;;;9.40;99.90;;;;;;4979461;28;20039;-74
2022/11/11 12:26:35;;;;;;;15.10;6.50;;;9.40;99.90;;;;;;4986024;28;19921;-73
2022/11/11 12:29:17;;;;;;;13.77;5.78;;;9.20;99.90;;;;;;4980545;28;20074;-73
2022/11/11 12:32:18;;;;;;;17.55;7.25;;;9.00;99.90;;;;;;4952118;28;20078;-72
2022/11/11 12:35:31;;;;;;;21.63;7.57;;;9.10;99.90;;;;;;4972401;28;20026;-72
2022/11/11 12:38:27;;;;;;;13.20;6.35;;;9.00;99.90;;;;;;4978359;28;20130;-73
2022/11/11 12:41:23;;;;;;;16.95;6.82;;;9.10;99.90;;;;;;4981093;28;20044;-71
2022/11/11 12:44:05;;;;;;;18.40;6.22;;;9.00;99.90;;;;;;4973837;28;20581;-72
2022/11/11 12:47:16;;;;;;;22.30;8.30;;;9.10;99.90;;;;;;4985903;28;20031;-71
2022/11/11 12:50:29;;;;;;;24.00;7.60;;;8.90;99.90;;;;;;4972806;28;20505;-71
2022/11/11 12:53:22;;;;;;;21.27;10.50;;;9.00;99.90;;;;;;4979102;28;20043;-72
2022/11/11 12:56:13;;;;;;;15.35;7.32;;;9.00;99.90;;;;;;4964983;28;20058;-70
2022/11/11 12:59:24;;;;;;;22.83;8.23;;;8.90;99.90;;;;;;4971504;28;20126;-70
2022/11/11 13:02:32;;;;;;;49.10;19.40;;;9.00;99.90;;;;;;4968434;28;20543;-70
2022/11/11 13:05:33;;;;;;;12.32;7.53;;;9.20;99.90;;;;;;4988202;28;20090;-71
2022/11/11 13:08:12;;;;;;;20.15;6.38;;;9.10;99.90;;;;;;4962464;28;20038;-71
2022/11/11 13:10:52;;;;;;;16.05;6.90;;;9.40;99.90;;;;;;4974973;28;20027;-71
2022/11/11 13:13:39;;;;;;;19.42;6.20;;;9.50;99.90;;;;;;4970484;28;20033;-72
2022/11/11 13:16:10;;;;;;;16.55;7.30;;;9.70;99.90;;;;;;4970102;28;20034;-71
2022/11/11 13:19:13;;;;;;;15.85;6.85;;;9.40;99.90;;;;;;4962488;28;20019;-72
2022/11/11 13:22:01;;;;;;;21.38;9.18;;;9.40;99.90;;;;;;4938645;28;20038;-72
2022/11/11 13:24:30;;;;;;;22.77;7.60;;;9.40;99.90;;;;;;4980201;28;20055;-72
2022/11/11 13:27:32;;;;;;;19.30;7.78;;;9.50;99.90;;;;;;4979558;28;20035;-72
2022/11/11 13:30:45;;;;;;;15.93;7.05;;;9.60;99.90;;;;;;4978301;28;20030;-73
2022/11/11 13:33:52;;;;;;;20.40;7.55;;;9.70;99.90;;;;;;4982680;28;20129;-72
2022/11/11 13:36:27;;;;;;;16.73;6.55;;;9.70;99.90;;;;;;4965125;28;20030;-72
2022/11/11 13:39:01;;;;;;;22.98;11.90;;;9.70;99.90;;;;;;4983715;28;20039;-72
2022/11/11 13:41:41;;;;;;;17.50;6.80;;;9.80;99.90;;;;;;5001122;28;20722;-72
2022/11/11 13:44:08;;;;;;;16.27;8.00;;;9.70;99.90;;;;;;4962216;28;20058;-71
2022/11/11 13:46:45;;;;;;;16.95;9.10;;;9.70;99.90;;;;;;4970630;28;20502;-72
2022/11/11 13:49:25;;;;;;;20.88;7.38;;;9.90;99.90;;;;;;4975159;28;20031;-71
2022/11/11 13:52:04;;;;;;;16.80;6.22;;;9.90;99.90;;;;;;4981834;28;20031;-72
2022/11/11 13:54:41;;;;;;;17.67;7.80;;;9.80;99.90;;;;;;4980215;28;20049;-71
2022/11/11 13:57:13;;;;;;;19.15;7.22;;;9.90;99.90;;;;;;4981573;28;20487;-71
2022/11/11 13:59:59;;;;;;;15.93;7.18;;;9.80;99.90;;;;;;4971603;28;20031;-70
2022/11/11 14:02:32;;;;;;;16.15;7.30;;;9.80;99.90;;;;;;4968923;28;20039;-71
2022/11/11 14:05:00;;;;;;;14.45;7.47;;;9.50;99.90;;;;;;4980403;28;20026;-72
2022/11/11 14:07:47;;;;;;;18.52;8.27;;;9.50;99.90;;;;;;4981460;28;20042;-71
2022/11/11 14:10:15;;;;;;;16.00;6.82;;;9.50;99.90;;;;;;4982605;28;20386;-72
2022/11/11 14:12:52;;;;;;;16.70;7.93;;;9.50;99.90;;;;;;4981640;28;20038;-71
2022/11/11 14:15:42;;;;;;;15.52;8.30;;;9.60;99.90;;;;;;4976631;28;20031;-71
2022/11/11 14:18:17;;;;;;;25.37;9.63;;;9.60;99.90;;;;;;4978498;28;20455;-72
2022/11/11 14:20:54;;;;;;;34.42;8.77;;;9.50;99.90;;;;;;4983821;28;20486;-70
2022/11/11 14:23:34;;;;;;;29.45;11.30;;;9.40;99.90;;;;;;4978681;28;20046;-72
2022/11/11 14:26:05;;;;;;;24.60;10.15;;;9.40;99.90;;;;;;4986002;28;20038;-72
2022/11/11 14:28:37;;;;;;;18.58;9.75;;;9.20;99.90;;;;;;4979689;28;20035;-75
2022/11/11 14:31:11;;;;;;;21.08;8.82;;;9.30;99.90;;;;;;4993520;23;20444;-72
2022/11/11 14:34:34;;;;;;;19.13;8.15;;;9.30;99.90;;;;;;4966408;28;20046;-71
2022/11/11 14:37:13;;;;;;;16.85;8.23;;;9.30;99.90;;;;;;4963183;28;20023;-67
2022/11/11 14:39:53;;;;;;;19.80;9.07;;;9.20;99.90;;;;;;4955137;28;20042;-68